Millbach Springs, Pennsylvania
Current Conditions -  °F | °C
As of 1:53 AM on Thursday 23 Oct 2014 (Local Time) from KLNS Reporting Station
Light Rain Light Rain  
Wind Chill: 51°   Ceiling: 8000
Heat Index: 51°   Visibility: 10mi
Dew Point: 43°   Wind: 15mph
Humidity: 74%   Direction: 330°NNW
Pressure: 29.84"   Gusts: 24mph
Location:  40.3035°N, 76.254°W
Report Text: KLNS 230553Z AUTO 33013G21KT 10SM -RA FEW048 BKN080 OVC110 11/06 A2984 RMK AO2 SLP105 P0000 60000 T01060061 10117 20100 58013
Loading
Personal Weather Stations






























Interactive Weather Map
Tropical Storm Tracking
New forecast layout! Learn more

10-Day Weather Forecast

Advertisements
Track Severe Weather on mobile